Home > Products > Valid Products > MTR

000
SAUS43 KDTX 262352
MTRP58
METAR KP58 262351Z AUTO 12004KT 17/16 A2984 RMK AO1 SLP102 T01720156
10206 20156 55010





000
SAUS43 KDTX 262054
MTRP58
METAR KP58 262051Z AUTO 08004KT 17/16 A2987 RMK AO1 SLP112 T01720156
56012





000
SAUS43 KDTX 261952
MTRP58
METAR KP58 261951Z AUTO 11004KT 17/15 A2989 RMK AO1 SLP116 T01670150





000
SAUS43 KDTX 261753
MTRP58
METAR KP58 261751Z AUTO 08005KT 19/17 A2991 RMK AO1 SLP124 T01940167
10267 20178 56008





000
SAUS43 KDTX 261154
MTRP58
METAR KP58 261151Z AUTO 14003KT 18/16 A2995 RMK AO1 SLP137 T01830161
10200 20150 53008





000
SAUS43 KDTX 260654
MTRP58
METAR KP58 260651Z AUTO 15004KT 16/13 A2994 RMK AO1 SLP136 T01560128





000
SAUS43 KDTX 260353
MTRP58
METAR KP58 260351Z AUTO 15005KT 16/12 A2997 RMK AO1 SLP148 T01610122





000
SAUS43 KDTX 260052
MTRP58
METAR KP58 260051Z AUTO 10009KT 15/12 A2999 RMK AO1 SLP152 T01500117





000
SAUS43 KDTX 251854
MTRP58
METAR KP58 251851Z AUTO 11007KT 16/12 A3004 RMK AO1 SLP171 T01560117





000
SAUS43 KDTX 251153
MTRP58
METAR KP58 251151Z AUTO 14003KT 19/13 A3001 RMK AO1 SLP154 70001
T01890128 10189 20144 51009





000
SAUS43 KDTX 250852
MTRP58
METAR KP58 250851Z AUTO 15004KT 16/13 A2998 RMK AO1 SLP149 T01560128
56007





000
SAUS43 KDTX 250752
MTRP58
METAR KP58 250751Z AUTO 00000KT 15/13 A2998 RMK AO1 SLP149 T01500133





000
SAUS43 KDTX 250653
MTRP58
METAR KP58 250651Z AUTO 22003KT 15/13 A2999 RMK AO1 SLP153 T01500128





000
SAUS43 KDTX 250554
MTRP58
METAR KP58 250551Z AUTO 31004KT 16/11 A3000 RMK AO1 SLP156 P0001
60001 T01560111 10278 20156 53016





000
SAUS43 KDTX 250453
MTRP58
METAR KP58 250451Z AUTO 00000KT 16/11 A2998 RMK AO1 SLP144 T01610106
402890133





000
SAUS43 KDTX 250353
MTRP58
METAR KP58 250351Z AUTO 31005KT 17/11 A2998 RMK AO1 SLP144 T01720106





000
SAUS43 KDTX 250254
MTRP58
METAR KP58 250251Z AUTO 24004KT 22/11 A2996 RMK AO1 SLP135 T02170106
53011





000
SAUS43 KDTX 250054
MTRP58
METAR KP58 250051Z AUTO VRB04KT 26/09 A2993 RMK AO1 SLP128 T02560094





000
SAUS43 KDTX 242054
MTRP58
METAR KP58 242051Z AUTO 11008KT 19/11 A2993 RMK AO1 SLP133 T01940111
56014





000
SAUS43 KDTX 241652
MTRP58
METAR KP58 241651Z AUTO VRB04KT 27/09 A2996 RMK AO1 SLP140 T02720094





000
SAUS43 KDTX 241554
MTRP58
METAR KP58 241551Z AUTO VRB05KT 26/09 A2998 RMK AO1 SLP145 T02610089





000
SAUS43 KDTX 241453
MTRP58
METAR KP58 241451Z AUTO VRB05G15KT 25/06 A2997 RMK AO1 SLP144
T02500056 58003





000
SAUS43 KDTX 241253
MTRP58
METAR KP58 241251Z AUTO 23007KT 20/04 A2998 RMK AO1 SLP149 T02000039





000
SAUS43 KDTX 241153
MTRP58
METAR KP58 241151Z AUTO 24006KT 17/04 A2998 RMK AO1 SLP150 T01720044
10172 20133 53012





    US Dept of Commerce
    National Oceanic and Atmospheric Administration
    National Weather Service
    1325 East West Highway
    Silver Spring, MD 20910
    Page Author: NWS Internet Services Team
Disclaimer
Information Quality
Credits
Glossary
Privacy Policy
Freedom of Information Act (FOIA)
About Us
Career Opportunities